createdAt,value
2022-08-05T00:02:07.774Z,90.30
2022-08-05T00:04:14.352Z,90.30
2022-08-05T00:06:29.205Z,90.30
2022-08-05T00:08:36.266Z,90.30
2022-08-05T00:10:39.781Z,90.40
2022-08-05T00:12:55.778Z,90.40
2022-08-05T00:14:59.803Z,90.40
2022-08-05T00:17:23.969Z,90.40
2022-08-05T00:19:33.337Z,90.60
2022-08-05T00:21:47.320Z,90.70
2022-08-05T00:23:53.526Z,90.80
2022-08-05T00:26:09.296Z,91.10
2022-08-05T00:28:12.631Z,91.20
2022-08-05T00:30:15.574Z,91.40
2022-08-05T00:32:18.389Z,91.70
2022-08-05T00:34:55.264Z,92.00
2022-08-05T00:37:13.040Z,92.20
2022-08-05T00:39:13.522Z,92.30
2022-08-05T00:41:28.466Z,92.40
2022-08-05T00:43:51.217Z,92.60
2022-08-05T00:45:54.125Z,92.70
2022-08-05T00:48:05.159Z,92.90
2022-08-05T00:50:11.131Z,93.90
2022-08-05T00:52:14.056Z,94.50
2022-08-05T00:54:20.493Z,94.70
2022-08-05T00:56:23.851Z,95.10
2022-08-05T00:58:27.804Z,95.80
2022-08-05T01:00:31.829Z,96.10
2022-08-05T01:02:36.522Z,96.70
2022-08-05T01:04:42.180Z,97.20
2022-08-05T01:06:49.044Z,98.00
2022-08-05T01:08:55.171Z,99.90
2022-08-05T01:11:03.527Z,99.90
2022-08-05T01:13:22.448Z,99.90
2022-08-05T01:15:36.741Z,99.90
2022-08-05T01:17:45.106Z,99.90
2022-08-05T01:20:06.740Z,99.90
2022-08-05T01:22:30.453Z,99.90
2022-08-05T01:24:48.456Z,99.90
2022-08-05T01:27:17.587Z,99.90
2022-08-05T01:29:31.465Z,99.90
2022-08-05T01:31:45.186Z,99.90
2022-08-05T01:33:53.613Z,99.90
2022-08-05T01:36:00.190Z,99.90
2022-08-05T01:38:06.831Z,99.90
2022-08-05T01:40:10.792Z,99.90
2022-08-05T01:42:15.483Z,99.90
2022-08-05T01:44:20.445Z,99.90
2022-08-05T01:46:41.467Z,99.90
2022-08-05T01:48:49.732Z,99.90
2022-08-05T01:50:54.104Z,99.90
2022-08-05T01:53:01.570Z,99.90
2022-08-05T01:55:08.713Z,99.90
2022-08-05T01:58:10.637Z,99.90
2022-08-05T01:59:38.131Z,99.90
2022-08-05T02:01:42.930Z,99.90
2022-08-05T02:03:49.457Z,99.90
2022-08-05T02:05:59.821Z,99.90
2022-08-05T02:08:04.206Z,99.90
2022-08-05T02:10:08.075Z,99.90
2022-08-05T02:12:18.594Z,99.90
2022-08-05T02:14:29.408Z,99.90
2022-08-05T02:16:40.469Z,99.90
2022-08-05T02:18:53.567Z,99.90
2022-08-05T02:21:02.293Z,99.90
2022-08-05T02:23:11.596Z,99.90
2022-08-05T02:25:19.407Z,99.90
2022-08-05T02:27:29.914Z,99.90
2022-08-05T02:29:59.905Z,99.90
2022-08-05T02:32:05.261Z,99.90
2022-08-05T02:34:11.706Z,99.90
2022-08-05T02:36:17.228Z,99.90
2022-08-05T02:38:20.668Z,99.90
2022-08-05T02:40:28.552Z,99.90
2022-08-05T02:42:36.158Z,99.90
2022-08-05T02:44:40.635Z,99.90
2022-08-05T02:46:53.397Z,99.90
2022-08-05T02:49:03.933Z,99.90
2022-08-05T02:51:09.207Z,99.90
2022-08-05T02:53:18.719Z,99.90
2022-08-05T02:55:54.608Z,99.90
2022-08-05T02:58:09.882Z,99.90
2022-08-05T03:00:12.521Z,99.90
2022-08-05T03:02:18.107Z,99.90
2022-08-05T03:04:23.117Z,99.90
2022-08-05T03:06:53.878Z,99.90
2022-08-05T03:08:52.503Z,99.90
2022-08-05T03:11:53.837Z,99.90
2022-08-05T03:13:19.183Z,99.90
2022-08-05T03:15:30.433Z,99.90
2022-08-05T03:17:41.754Z,99.90
2022-08-05T03:19:45.802Z,99.90
2022-08-05T03:21:51.464Z,99.90
2022-08-05T03:23:55.081Z,99.90
2022-08-05T03:26:04.339Z,99.90
2022-08-05T03:28:22.868Z,99.90
2022-08-05T03:30:28.551Z,99.90
2022-08-05T03:32:37.402Z,99.90
2022-08-05T03:34:41.019Z,99.90
2022-08-05T03:36:44.297Z,99.90
2022-08-05T03:38:53.437Z,99.90
2022-08-05T03:40:57.672Z,99.90
2022-08-05T03:43:01.433Z,99.90
2022-08-05T03:45:23.910Z,99.90
2022-08-05T03:47:35.178Z,99.90
2022-08-05T03:49:52.022Z,99.90
2022-08-05T03:52:38.562Z,99.90
2022-08-05T03:55:53.360Z,99.90
2022-08-05T03:56:55.783Z,99.90
2022-08-05T03:59:04.958Z,99.90
2022-08-05T04:01:11.278Z,99.90
2022-08-05T04:03:26.700Z,99.90
2022-08-05T04:05:34.880Z,99.90
2022-08-05T04:07:57.362Z,99.90
2022-08-05T04:10:03.369Z,99.90
2022-08-05T04:12:24.391Z,99.90
2022-08-05T04:14:30.035Z,99.90
2022-08-05T04:16:35.532Z,99.90
2022-08-05T04:18:39.969Z,99.90
2022-08-05T04:20:42.790Z,99.90
2022-08-05T04:22:47.824Z,99.90
2022-08-05T04:24:52.652Z,99.90
2022-08-05T04:26:58.185Z,99.90
2022-08-05T04:29:07.287Z,99.90
2022-08-05T04:31:10.485Z,99.90
2022-08-05T04:33:14.074Z,99.90
2022-08-05T04:35:17.673Z,99.90
2022-08-05T04:37:22.993Z,99.90
2022-08-05T04:39:45.396Z,99.90
2022-08-05T04:41:56.989Z,99.90
2022-08-05T04:43:59.767Z,99.90
2022-08-05T04:46:04.582Z,99.90
2022-08-05T04:48:18.609Z,99.90
2022-08-05T04:50:37.422Z,99.90
2022-08-05T04:52:53.477Z,99.90
2022-08-05T04:54:57.691Z,99.90
2022-08-05T04:57:02.182Z,99.90
2022-08-05T04:59:21.544Z,99.90
2022-08-05T05:02:05.550Z,99.90
2022-08-05T05:03:48.848Z,99.90
2022-08-05T05:06:35.842Z,99.90
2022-08-05T05:08:29.904Z,99.90
2022-08-05T05:10:34.858Z,99.90
2022-08-05T05:12:39.002Z,99.90
2022-08-05T05:14:49.117Z,99.90
2022-08-05T05:16:52.453Z,99.90
2022-08-05T05:19:18.873Z,99.90
2022-08-05T05:21:21.612Z,99.90
2022-08-05T05:23:38.993Z,99.90
2022-08-05T05:25:53.189Z,99.90
2022-08-05T05:27:58.083Z,99.90
2022-08-05T05:30:04.780Z,99.90
2022-08-05T05:32:12.560Z,99.90
2022-08-05T05:34:23.991Z,99.90
2022-08-05T05:36:30.078Z,99.90
2022-08-05T05:38:33.452Z,99.90
2022-08-05T05:40:36.446Z,99.90
2022-08-05T05:42:39.259Z,99.90
2022-08-05T05:44:51.316Z,99.90
2022-08-05T05:46:54.228Z,99.90
2022-08-05T05:48:59.053Z,99.90
2022-08-05T05:51:15.549Z,99.90
2022-08-05T05:53:22.063Z,99.90
2022-08-05T05:55:52.219Z,99.90
2022-08-05T05:57:52.563Z,99.90
2022-08-05T05:59:57.426Z,99.90
2022-08-05T06:02:00.618Z,99.90
2022-08-05T06:04:03.688Z,99.90
2022-08-05T06:06:07.383Z,99.90
2022-08-05T06:08:10.629Z,99.90
2022-08-05T06:10:14.699Z,99.90
2022-08-05T06:12:18.665Z,99.90
2022-08-05T06:14:22.636Z,99.90
2022-08-05T06:16:32.846Z,99.90
2022-08-05T06:18:39.875Z,99.90
2022-08-05T06:20:42.825Z,99.90
2022-08-05T06:22:51.103Z,99.90
2022-08-05T06:24:54.089Z,99.90
2022-08-05T06:26:56.994Z,99.90
2022-08-05T06:29:00.016Z,99.90
2022-08-05T06:31:11.120Z,99.90
2022-08-05T06:34:06.369Z,99.90
2022-08-05T06:36:06.863Z,99.90
2022-08-05T06:38:11.743Z,99.90
2022-08-05T06:40:18.139Z,99.90
2022-08-05T06:42:24.157Z,99.90
2022-08-05T06:44:28.393Z,99.90
2022-08-05T06:46:31.558Z,99.90
2022-08-05T06:48:55.321Z,99.90
2022-08-05T06:51:00.168Z,99.90
2022-08-05T06:53:19.518Z,99.90
2022-08-05T06:55:28.047Z,99.90
2022-08-05T06:58:02.699Z,99.90
2022-08-05T07:00:03.380Z,99.90
2022-08-05T07:02:08.232Z,99.90
2022-08-05T07:04:13.948Z,99.90
2022-08-05T07:06:17.355Z,99.90
2022-08-05T07:08:25.127Z,99.90
2022-08-05T07:10:32.269Z,99.90
2022-08-05T07:12:54.247Z,99.90
2022-08-05T07:15:34.216Z,99.90
2022-08-05T07:18:02.050Z,99.90
2022-08-05T07:20:32.218Z,99.90
2022-08-05T07:22:29.134Z,99.90
2022-08-05T07:24:43.698Z,99.90
2022-08-05T07:26:55.422Z,99.90
2022-08-05T07:28:58.247Z,99.90
2022-08-05T07:31:02.829Z,99.90
2022-08-05T07:33:09.263Z,99.90
2022-08-05T07:36:04.000Z,99.90
2022-08-05T07:37:39.511Z,99.90
2022-08-05T07:40:27.126Z,99.90
2022-08-05T07:42:09.232Z,99.90
2022-08-05T07:44:19.173Z,99.90
2022-08-05T07:46:25.430Z,99.90
2022-08-05T07:49:00.439Z,99.90
2022-08-05T07:50:53.507Z,99.90
2022-08-05T07:52:56.478Z,99.90
2022-08-05T07:54:59.513Z,99.90
2022-08-05T07:57:18.068Z,99.90
2022-08-05T07:59:38.380Z,99.90
2022-08-05T08:01:52.480Z,99.90
2022-08-05T08:04:00.760Z,99.90
2022-08-05T08:06:06.455Z,99.90
2022-08-05T08:08:13.907Z,99.90
2022-08-05T08:10:20.630Z,99.90
2022-08-05T08:12:36.932Z,99.90
2022-08-05T08:14:47.803Z,99.90
2022-08-05T08:16:53.374Z,99.90
2022-08-05T08:18:56.597Z,99.90
2022-08-05T08:21:03.587Z,99.90
2022-08-05T08:23:59.951Z,99.90
2022-08-05T08:25:59.185Z,99.90
2022-08-05T08:27:55.590Z,99.90
2022-08-05T08:30:05.729Z,99.90
2022-08-05T08:32:28.094Z,99.90
2022-08-05T08:34:33.142Z,99.90
2022-08-05T08:36:48.803Z,99.90
2022-08-05T08:38:57.167Z,99.90
2022-08-05T08:41:04.801Z,99.90
2022-08-05T08:45:16.364Z,99.90
2022-08-05T08:45:32.350Z,99.90
2022-08-05T08:48:05.651Z,99.90
2022-08-05T08:50:22.347Z,99.90
2022-08-05T08:52:26.350Z,99.90
2022-08-05T08:54:31.776Z,99.90
2022-08-05T08:56:35.932Z,99.90
2022-08-05T08:58:50.913Z,99.90
2022-08-05T09:00:54.375Z,99.90
2022-08-05T09:02:58.590Z,99.90
2022-08-05T09:05:17.775Z,99.90
2022-08-05T09:07:28.758Z,99.90
2022-08-05T09:09:35.438Z,99.90
2022-08-05T09:11:53.012Z,99.90
2022-08-05T09:14:10.133Z,99.90
2022-08-05T09:16:21.548Z,99.90
2022-08-05T09:18:30.625Z,99.90
2022-08-05T09:20:37.666Z,99.90
2022-08-05T09:23:07.910Z,99.90
2022-08-05T09:25:24.319Z,99.90
2022-08-05T09:28:04.633Z,99.90
2022-08-05T09:30:08.331Z,99.90
2022-08-05T09:32:43.047Z,99.90
2022-08-05T09:34:50.750Z,99.90
2022-08-05T09:36:59.354Z,99.90
2022-08-05T09:39:16.757Z,99.90
2022-08-05T09:41:22.597Z,99.90
2022-08-05T09:43:40.660Z,99.90
2022-08-05T09:46:07.640Z,99.90
2022-08-05T09:48:21.063Z,99.90
2022-08-05T09:50:37.676Z,99.90
2022-08-05T09:52:52.967Z,99.90
2022-08-05T09:55:06.439Z,99.90
2022-08-05T09:57:39.576Z,99.90
2022-08-05T09:59:48.978Z,99.90
2022-08-05T10:01:57.810Z,99.90
2022-08-05T10:04:10.076Z,99.90
2022-08-05T10:06:14.869Z,99.90
2022-08-05T10:08:37.062Z,99.90
2022-08-05T10:10:54.267Z,99.90
2022-08-05T10:13:02.661Z,99.90
2022-08-05T10:15:20.238Z,99.90
2022-08-05T10:17:37.667Z,99.90
2022-08-05T10:20:04.504Z,99.90
2022-08-05T10:22:06.395Z,99.90
2022-08-05T10:24:13.938Z,99.90
2022-08-05T10:26:18.124Z,99.90
2022-08-05T10:28:30.346Z,99.90
2022-08-05T10:31:20.686Z,99.90
2022-08-05T10:33:02.660Z,99.90
2022-08-05T10:35:06.884Z,99.90
2022-08-05T10:37:12.379Z,99.90
2022-08-05T10:39:25.276Z,99.90
2022-08-05T10:41:48.795Z,99.90
2022-08-05T10:43:59.299Z,99.90
2022-08-05T10:46:06.184Z,99.90
2022-08-05T10:48:52.772Z,99.90
2022-08-05T10:51:00.353Z,99.90
2022-08-05T10:53:03.253Z,99.90
2022-08-05T10:55:09.872Z,99.90
2022-08-05T10:57:13.857Z,99.90
2022-08-05T11:00:03.551Z,99.90
2022-08-05T11:01:54.526Z,99.90
2022-08-05T11:04:12.046Z,99.90
2022-08-05T11:06:17.833Z,99.90
2022-08-05T11:08:36.707Z,99.90
2022-08-05T11:10:59.992Z,99.90
2022-08-05T11:13:05.043Z,99.80
2022-08-05T11:15:20.125Z,99.80
2022-08-05T11:18:00.250Z,99.80
2022-08-05T11:20:10.893Z,99.90
2022-08-05T11:22:42.394Z,99.90
2022-08-05T11:24:50.662Z,99.90
2022-08-05T11:27:51.138Z,99.90
2022-08-05T11:30:01.286Z,99.90
2022-08-05T11:32:27.569Z,99.90
2022-08-05T11:34:38.747Z,99.90
2022-08-05T11:36:52.803Z,99.90
2022-08-05T11:38:57.847Z,99.90
2022-08-05T11:41:15.471Z,99.90
2022-08-05T11:44:00.918Z,99.90
2022-08-05T11:46:15.524Z,99.90
2022-08-05T11:48:13.999Z,99.90
2022-08-05T11:50:17.937Z,99.90
2022-08-05T11:52:29.485Z,99.90
2022-08-05T11:54:35.010Z,99.90
2022-08-05T11:56:50.063Z,99.90
2022-08-05T11:58:53.614Z,99.90
2022-08-05T12:01:03.376Z,99.90
2022-08-05T12:03:28.695Z,99.90
2022-08-05T12:05:39.565Z,99.90
2022-08-05T12:08:10.445Z,99.90
2022-08-05T12:10:12.289Z,99.90
2022-08-05T12:12:22.376Z,99.90
2022-08-05T12:14:37.607Z,99.90
2022-08-05T12:16:45.436Z,99.30
2022-08-05T12:18:53.081Z,99.40
2022-08-05T12:20:56.221Z,99.50
2022-08-05T12:23:09.728Z,99.50
2022-08-05T12:25:14.204Z,99.60
2022-08-05T12:27:25.330Z,99.60
2022-08-05T12:29:38.934Z,99.30
2022-08-05T12:31:48.212Z,99.70
2022-08-05T12:33:58.141Z,99.90
2022-08-05T12:36:02.834Z,99.80
2022-08-05T12:38:07.085Z,99.90
2022-08-05T12:40:20.682Z,99.90
2022-08-05T12:42:31.259Z,99.40
2022-08-05T12:44:34.955Z,99.50
2022-08-05T12:46:45.595Z,99.00
2022-08-05T12:48:48.682Z,98.10
2022-08-05T12:52:10.718Z,98.30
2022-08-05T12:53:42.203Z,98.50
2022-08-05T12:55:50.352Z,98.20
2022-08-05T12:58:50.935Z,97.30
2022-08-05T13:02:03.963Z,97.60
2022-08-05T13:02:47.370Z,97.20
2022-08-05T13:04:58.738Z,97.20
2022-08-05T13:07:05.570Z,97.50
2022-08-05T13:09:15.278Z,97.60
2022-08-05T13:12:02.228Z,97.10
2022-08-05T13:14:05.235Z,97.10
2022-08-05T13:16:15.284Z,97.00
2022-08-05T13:18:19.636Z,96.40
2022-08-05T13:20:26.096Z,96.10
2022-08-05T13:22:33.356Z,96.50
2022-08-05T13:24:57.202Z,96.90
2022-08-05T13:27:00.932Z,97.30
2022-08-05T13:29:05.279Z,97.70
2022-08-05T13:31:11.145Z,97.20
2022-08-05T13:34:25.043Z,97.20
2022-08-05T13:35:47.266Z,97.30
2022-08-05T13:37:56.192Z,97.50
2022-08-05T13:40:16.065Z,97.10
2022-08-05T13:42:24.734Z,97.30
2022-08-05T13:44:28.135Z,96.90
2022-08-05T13:48:58.295Z,96.30
2022-08-05T13:51:07.505Z,96.00
2022-08-05T13:53:15.856Z,95.70
2022-08-05T13:55:41.846Z,96.20
2022-08-05T13:57:50.825Z,96.70
2022-08-05T13:59:57.726Z,97.10
2022-08-05T14:02:06.668Z,97.40
2022-08-05T14:04:27.960Z,97.70
2022-08-05T14:06:30.944Z,97.90
2022-08-05T14:08:35.805Z,97.70
2022-08-05T14:10:39.433Z,98.60
2022-08-05T14:12:48.485Z,98.00
2022-08-05T14:14:52.172Z,98.00
2022-08-05T14:16:55.298Z,98.10
2022-08-05T14:19:04.548Z,98.30
2022-08-05T14:22:09.178Z,98.20
2022-08-05T14:23:36.321Z,98.30
2022-08-05T14:25:44.882Z,98.50
2022-08-05T14:27:49.280Z,98.40
2022-08-05T14:29:52.326Z,98.40
2022-08-05T14:32:11.583Z,98.60
2022-08-05T14:34:16.721Z,99.10
2022-08-05T14:36:20.484Z,99.30
2022-08-05T14:38:33.125Z,99.20
2022-08-05T14:40:39.123Z,99.00
2022-08-05T14:42:43.476Z,98.90
2022-08-05T14:44:46.532Z,98.90
2022-08-05T14:46:49.434Z,99.10
2022-08-05T14:48:52.242Z,99.50
2022-08-05T14:50:56.112Z,99.70
2022-08-05T14:53:00.316Z,99.90
2022-08-05T14:55:03.569Z,99.90
2022-08-05T14:57:13.487Z,99.90
2022-08-05T14:59:18.266Z,99.90
2022-08-05T15:01:48.463Z,99.90
2022-08-05T15:03:47.660Z,99.90
2022-08-05T15:06:07.673Z,99.90
2022-08-05T15:08:17.892Z,99.90
2022-08-05T15:10:37.906Z,99.90
2022-08-05T15:13:00.365Z,99.90
2022-08-05T15:15:06.573Z,99.70
2022-08-05T15:17:46.406Z,99.40
2022-08-05T15:19:41.740Z,99.50
2022-08-05T15:21:52.129Z,99.20
2022-08-05T15:23:55.204Z,99.90
2022-08-05T15:26:02.757Z,99.90
2022-08-05T15:28:06.443Z,99.90
2022-08-05T15:30:14.236Z,99.90
2022-08-05T15:32:19.363Z,99.90
2022-08-05T15:34:33.087Z,99.90
2022-08-05T15:36:36.559Z,99.90
2022-08-05T15:38:41.038Z,99.90
2022-08-05T15:41:03.540Z,99.90
2022-08-05T15:43:10.885Z,99.90
2022-08-05T15:45:38.655Z,99.90
2022-08-05T15:47:43.396Z,99.70
2022-08-05T15:49:56.903Z,99.70
2022-08-05T15:52:04.045Z,99.60
2022-08-05T15:54:16.949Z,99.80
2022-08-05T15:56:20.173Z,99.50
2022-08-05T15:58:23.162Z,99.20
2022-08-05T16:00:43.011Z,99.20
2022-08-05T16:02:53.574Z,99.30
2022-08-05T16:04:56.539Z,99.40
2022-08-05T16:06:59.303Z,99.60
2022-08-05T16:09:03.284Z,99.40
2022-08-05T16:11:06.380Z,99.50
2022-08-05T16:13:10.919Z,99.50
2022-08-05T16:15:18.823Z,99.50
2022-08-05T16:17:24.284Z,99.70
2022-08-05T16:20:04.467Z,99.90
2022-08-05T16:22:00.733Z,99.90
2022-08-05T16:24:07.624Z,99.90
2022-08-05T16:26:16.116Z,99.90
2022-08-05T16:28:19.771Z,99.90
2022-08-05T16:30:28.633Z,99.90
2022-08-05T16:32:33.643Z,99.90
2022-08-05T16:34:39.386Z,99.70
2022-08-05T16:36:45.671Z,99.50
2022-08-05T16:38:54.355Z,99.20
2022-08-05T16:41:01.389Z,99.40
2022-08-05T16:43:04.459Z,99.40
2022-08-05T16:46:04.965Z,99.30
2022-08-05T16:47:40.847Z,99.40
2022-08-05T16:49:56.655Z,99.50
2022-08-05T16:51:59.478Z,99.50
2022-08-05T16:54:15.999Z,99.40
2022-08-05T16:56:20.584Z,99.50
2022-08-05T16:58:26.185Z,99.60
2022-08-05T17:00:34.282Z,99.50
2022-08-05T17:02:39.325Z,98.90
2022-08-05T17:04:42.285Z,98.70
2022-08-05T17:06:46.317Z,98.80
2022-08-05T17:08:56.494Z,98.90
2022-08-05T17:11:00.915Z,98.90
2022-08-05T17:13:03.753Z,99.10
2022-08-05T17:15:09.304Z,98.60
2022-08-05T17:17:15.171Z,98.20
2022-08-05T17:19:19.656Z,97.40
2022-08-05T17:21:23.685Z,96.80
2022-08-05T17:24:03.270Z,96.40
2022-08-05T17:25:50.128Z,95.80
2022-08-05T17:27:54.656Z,95.80
2022-08-05T17:30:00.590Z,96.00
2022-08-05T17:32:06.775Z,96.10
2022-08-05T17:34:11.341Z,96.60
2022-08-05T17:36:32.687Z,96.60
2022-08-05T17:38:39.711Z,96.70
2022-08-05T17:40:43.059Z,96.60
2022-08-05T17:42:50.679Z,96.80
2022-08-05T17:44:54.298Z,97.00
2022-08-05T17:46:57.157Z,96.50
2022-08-05T17:49:00.332Z,96.60
2022-08-05T17:51:03.484Z,96.70
2022-08-05T17:53:13.560Z,96.70
2022-08-05T17:55:17.647Z,96.70
2022-08-05T17:57:21.705Z,96.80
2022-08-05T17:59:24.513Z,96.90
2022-08-05T18:01:28.838Z,96.90
2022-08-05T18:04:03.955Z,96.30
2022-08-05T18:06:11.522Z,95.80
2022-08-05T18:08:16.868Z,94.90
2022-08-05T18:10:21.018Z,94.80
2022-08-05T18:12:24.702Z,94.90
2022-08-05T18:14:28.003Z,95.00
2022-08-05T18:16:32.149Z,94.60
2022-08-05T18:18:39.901Z,94.50
2022-08-05T18:20:42.817Z,94.40
2022-08-05T18:22:54.699Z,94.40
2022-08-05T18:25:01.497Z,94.30
2022-08-05T18:27:04.636Z,94.20
2022-08-05T18:29:16.869Z,94.40
2022-08-05T18:31:20.181Z,94.70
2022-08-05T18:33:24.285Z,94.50
2022-08-05T18:36:00.877Z,94.60
2022-08-05T18:38:04.216Z,94.50
2022-08-05T18:40:34.426Z,94.40
2022-08-05T18:42:37.605Z,94.70
2022-08-05T18:44:49.153Z,94.60
2022-08-05T18:46:59.770Z,94.70
2022-08-05T18:49:23.798Z,94.90
2022-08-05T18:52:04.625Z,95.00
2022-08-05T18:54:11.043Z,95.20
2022-08-05T18:56:15.748Z,95.50
2022-08-05T18:58:24.324Z,95.30
2022-08-05T19:00:31.972Z,95.40
2022-08-05T19:02:38.417Z,95.60
2022-08-05T19:05:01.198Z,95.70
2022-08-05T19:07:04.709Z,95.70
2022-08-05T19:09:07.627Z,95.90
2022-08-05T19:11:10.640Z,96.10
2022-08-05T19:13:17.811Z,96.30
2022-08-05T19:15:58.166Z,96.30
2022-08-05T19:18:08.449Z,96.60
2022-08-05T19:20:11.136Z,96.60
2022-08-05T19:22:17.112Z,96.90
2022-08-05T19:24:34.461Z,96.90
2022-08-05T19:26:54.077Z,97.00
2022-08-05T19:28:59.851Z,97.00
2022-08-05T19:31:04.840Z,97.10
2022-08-05T19:33:17.015Z,97.30
2022-08-05T19:35:56.540Z,97.40
2022-08-05T19:38:04.690Z,97.30
2022-08-05T19:40:12.176Z,97.50
2022-08-05T19:42:15.441Z,97.50
2022-08-05T19:44:20.049Z,97.60
2022-08-05T19:46:29.025Z,97.70
2022-08-05T19:48:34.109Z,98.10
2022-08-05T19:50:38.201Z,98.20
2022-08-05T19:52:41.447Z,98.40
2022-08-05T19:54:44.824Z,98.50
2022-08-05T19:56:48.272Z,98.70
2022-08-05T19:58:54.012Z,98.70
2022-08-05T20:00:58.830Z,98.80
2022-08-05T20:03:01.875Z,99.10
2022-08-05T20:05:16.415Z,99.10
2022-08-05T20:07:46.646Z,99.20
2022-08-05T20:09:54.602Z,99.00
2022-08-05T20:11:59.326Z,99.10
2022-08-05T20:14:12.783Z,99.10
2022-08-05T20:16:19.417Z,99.20
2022-08-05T20:18:34.018Z,99.20
2022-08-05T20:20:38.976Z,99.20
2022-08-05T20:22:44.141Z,99.30
2022-08-05T20:24:49.674Z,99.50
2022-08-05T20:26:52.507Z,99.60
2022-08-05T20:29:00.836Z,99.80
2022-08-05T20:31:05.603Z,99.90
2022-08-05T20:33:10.977Z,99.90
2022-08-05T20:35:14.001Z,99.90
2022-08-05T20:38:05.518Z,99.90
2022-08-05T20:39:40.600Z,99.90
2022-08-05T20:41:45.098Z,99.90
2022-08-05T20:43:58.898Z,99.90
2022-08-05T20:46:06.748Z,99.90
2022-08-05T20:48:11.221Z,99.90
2022-08-05T20:50:19.007Z,99.90
2022-08-05T20:52:21.832Z,99.90
2022-08-05T20:54:25.931Z,99.90
2022-08-05T20:56:46.638Z,99.90
2022-08-05T20:58:52.024Z,99.90
2022-08-05T21:00:54.996Z,99.90
2022-08-05T21:03:07.049Z,99.90
2022-08-05T21:05:12.204Z,99.90
2022-08-05T21:07:15.172Z,99.90
2022-08-05T21:09:18.013Z,99.90
2022-08-05T21:12:10.320Z,99.90
2022-08-05T21:13:47.805Z,99.90
2022-08-05T21:15:59.606Z,99.90
2022-08-05T21:18:03.243Z,99.90
2022-08-05T21:20:09.954Z,99.90
2022-08-05T21:22:14.575Z,99.90
2022-08-05T21:24:19.555Z,99.90
2022-08-05T21:26:22.751Z,99.90
2022-08-05T21:28:30.779Z,99.90
2022-08-05T21:30:34.246Z,99.90
2022-08-05T21:32:37.127Z,99.90
2022-08-05T21:34:41.202Z,99.90
2022-08-05T21:36:46.554Z,99.90
2022-08-05T21:38:53.548Z,99.90
2022-08-05T21:40:56.689Z,99.90
2022-08-05T21:43:00.694Z,99.90
2022-08-05T21:45:10.871Z,99.90
2022-08-05T21:47:17.354Z,99.90
2022-08-05T21:49:58.636Z,99.90
2022-08-05T21:52:22.000Z,99.90
2022-08-05T21:54:27.841Z,99.90
2022-08-05T21:56:33.496Z,99.90
2022-08-05T21:58:36.761Z,99.90
2022-08-05T22:00:51.035Z,99.90
2022-08-05T22:02:54.885Z,99.90
2022-08-05T22:04:58.620Z,99.90
2022-08-05T22:07:01.555Z,99.90
2022-08-05T22:09:13.614Z,99.90
2022-08-05T22:11:19.558Z,99.90
2022-08-05T22:14:32.954Z,99.90
2022-08-05T22:16:15.325Z,99.90
2022-08-05T22:18:24.876Z,99.90
2022-08-05T22:20:28.822Z,99.90
2022-08-05T22:22:31.849Z,99.90
2022-08-05T22:24:52.425Z,99.90
2022-08-05T22:27:16.637Z,99.90
2022-08-05T22:29:26.765Z,99.90
2022-08-05T22:31:44.892Z,99.90
2022-08-05T22:33:58.636Z,99.90
2022-08-05T22:36:05.181Z,99.90
2022-08-05T22:38:09.925Z,99.90
2022-08-05T22:40:16.805Z,99.90
2022-08-05T22:42:25.993Z,99.90
2022-08-05T22:44:29.536Z,99.90
2022-08-05T22:46:32.515Z,99.90
2022-08-05T22:48:35.512Z,99.90
2022-08-05T22:50:38.288Z,99.90
2022-08-05T22:52:49.466Z,99.90
2022-08-05T22:54:52.320Z,99.90
2022-08-05T22:56:56.287Z,99.90
2022-08-05T22:59:03.926Z,99.90
2022-08-05T23:01:24.026Z,99.90
2022-08-05T23:03:58.538Z,99.90
2022-08-05T23:06:02.467Z,99.90
2022-08-05T23:08:05.694Z,99.90
2022-08-05T23:10:09.791Z,99.90
2022-08-05T23:12:13.123Z,99.90
2022-08-05T23:14:17.492Z,99.90
2022-08-05T23:16:39.553Z,99.90
2022-08-05T23:18:46.915Z,99.90
2022-08-05T23:20:51.995Z,99.90
2022-08-05T23:22:56.237Z,99.90
2022-08-05T23:24:59.731Z,99.90
2022-08-05T23:27:02.725Z,99.90
2022-08-05T23:29:06.270Z,99.90
2022-08-05T23:31:16.010Z,99.90
2022-08-05T23:33:26.528Z,99.90
2022-08-05T23:35:43.364Z,99.90
2022-08-05T23:37:46.681Z,99.90
2022-08-05T23:39:54.564Z,99.90
2022-08-05T23:41:58.024Z,99.90
2022-08-05T23:44:06.492Z,99.90
2022-08-05T23:46:21.062Z,99.90
2022-08-05T23:48:26.431Z,99.90
2022-08-05T23:50:29.337Z,99.90
2022-08-05T23:52:36.020Z,99.90
2022-08-05T23:54:49.055Z,99.90
2022-08-05T23:56:52.451Z,99.90
2022-08-05T23:58:55.582Z,99.90
